Time;durP1;ratioP1;P1;durP2;ratioP2;P2;SDS_P1;SDS_P2;PMS_P1;PMS_P2;Temp;Humidity;BMP_temperature;BMP_pressure;BME280_temperature;BME280_humidity;BME280_pressure;Samples;Min_cycle;Max_cycle;Signal;HPM_P1;HPM_P2
2021/12/17 00:07:03;;;;;;;16.13;9.02;;;6.40;75.30;;;;;;5135171;27;20023;-73
2021/12/17 00:09:29;;;;;;;14.43;8.60;;;6.40;75.30;;;;;;5132910;27;20084;-73
2021/12/17 00:11:55;;;;;;;15.55;8.75;;;6.40;75.30;;;;;;5135258;27;20471;-72
2021/12/17 00:14:29;;;;;;;15.57;8.80;;;6.40;75.20;;;;;;5109015;27;20046;-72
2021/12/17 00:16:59;;;;;;;15.38;9.20;;;6.40;75.30;;;;;;5132701;27;20031;-72
2021/12/17 00:48:59;;;;;;;20.45;9.05;;;6.50;75.40;;;;;;5131198;27;20033;-73
2021/12/17 00:54:23;;;;;;;21.70;10.15;;;6.50;75.50;;;;;;5124924;27;20054;-72
2021/12/17 00:56:52;;;;;;;17.88;10.20;;;6.50;75.60;;;;;;5131428;27;20368;-72
2021/12/17 00:59:18;;;;;;;14.82;9.40;;;6.50;75.60;;;;;;5114103;27;20072;-73
2021/12/17 01:01:45;;;;;;;19.30;8.93;;;6.50;75.60;;;;;;5130000;27;20023;-72
2021/12/17 01:04:11;;;;;;;18.00;9.60;;;6.50;75.50;;;;;;5132885;27;20118;-72
2021/12/17 01:06:38;;;;;;;17.67;9.48;;;6.50;75.50;;;;;;5133293;27;20450;-72
2021/12/17 01:09:05;;;;;;;14.15;9.38;;;6.50;75.50;;;;;;5133574;27;20110;-72
2021/12/17 01:11:31;;;;;;;15.05;8.93;;;6.50;75.60;;;;;;5119190;27;20027;-72
2021/12/17 01:13:57;;;;;;;15.75;9.10;;;6.50;75.60;;;;;;5134845;27;20027;-72
2021/12/17 01:16:23;;;;;;;14.55;8.57;;;6.50;75.70;;;;;;5115525;27;20061;-72
2021/12/17 01:19:01;;;;;;;20.23;8.70;;;6.50;75.60;;;;;;5133648;27;20027;-73
2021/12/17 01:24:34;;;;;;;;;;;6.50;75.80;;;;;;5133254;27;20054;-73
2021/12/17 01:35:24;;;;;;;13.65;8.45;;;6.50;75.70;;;;;;5118066;27;20494;-73
2021/12/17 01:43:13;;;;;;;14.73;8.30;;;6.60;75.90;;;;;;5123237;27;20042;-73
2021/12/17 01:45:41;;;;;;;16.60;8.55;;;6.60;75.90;;;;;;5132951;27;20019;-73
2021/12/17 01:48:11;;;;;;;13.50;8.05;;;6.60;75.90;;;;;;5131633;27;20023;-72
2021/12/17 02:01:38;;;;;;;23.23;8.80;;;6.70;75.90;;;;;;5131453;27;20026;-72
2021/12/17 02:04:04;;;;;;;15.63;8.57;;;6.70;75.90;;;;;;5129827;27;20034;-72
2021/12/17 02:06:33;;;;;;;17.70;9.95;;;6.70;76.00;;;;;;5113364;27;20026;-73
2021/12/17 02:09:00;;;;;;;13.20;8.80;;;6.70;76.00;;;;;;5105794;28;20057;-73
2021/12/17 02:20:00;;;;;;;19.30;9.50;;;6.70;75.80;;;;;;5132950;27;20030;-73
2021/12/17 02:23:07;;;;;;;18.15;9.68;;;6.70;75.50;;;;;;5127843;27;20028;-73
2021/12/17 02:33:22;;;;;;;19.75;9.38;;;6.70;75.70;;;;;;5133673;28;20030;-72
2021/12/17 02:35:49;;;;;;;14.23;9.27;;;6.60;75.70;;;;;;5114082;28;20023;-74
2021/12/17 02:38:16;;;;;;;17.92;9.00;;;6.60;75.80;;;;;;5128019;28;20475;-73
2021/12/17 02:46:11;;;;;;;13.90;8.82;;;6.70;76.00;;;;;;5126616;28;20079;-73
2021/12/17 02:48:39;;;;;;;16.73;9.23;;;6.60;75.90;;;;;;5114875;28;20031;-73
2021/12/17 02:51:05;;;;;;;17.13;9.45;;;6.70;76.00;;;;;;5130250;28;20027;-73
2021/12/17 02:53:31;;;;;;;15.20;8.70;;;6.70;76.00;;;;;;5113242;28;20043;-72
2021/12/17 02:56:07;;;;;;;17.98;9.52;;;6.70;76.00;;;;;;5131619;28;20015;-74
2021/12/17 02:58:34;;;;;;;16.30;8.82;;;6.70;76.20;;;;;;5132311;28;20019;-73
2021/12/17 03:01:03;;;;;;;13.93;8.10;;;6.70;76.20;;;;;;5132344;28;20028;-72
2021/12/17 03:03:32;;;;;;;14.02;8.90;;;6.70;76.20;;;;;;5108667;28;20038;-73
2021/12/17 03:05:58;;;;;;;15.25;8.57;;;6.70;76.20;;;;;;5113876;28;20127;-73
2021/12/17 03:08:24;;;;;;;17.83;9.20;;;6.70;76.10;;;;;;5097811;28;20495;-73
2021/12/17 03:10:51;;;;;;;15.48;9.48;;;6.80;76.20;;;;;;5113267;27;20468;-73
2021/12/17 03:13:20;;;;;;;15.13;8.95;;;6.70;76.20;;;;;;5136285;27;20015;-73
2021/12/17 03:16:00;;;;;;;16.65;9.40;;;6.80;76.30;;;;;;5131192;27;20024;-74
2021/12/17 03:23:54;;;;;;;21.13;9.43;;;6.80;76.10;;;;;;5131286;27;20058;-73
2021/12/17 03:26:25;;;;;;;14.77;9.52;;;6.80;76.00;;;;;;5136686;27;20019;-73
2021/12/17 03:28:55;;;;;;;13.73;8.48;;;6.80;76.10;;;;;;5118242;27;20079;-73
2021/12/17 03:31:22;;;;;;;14.43;8.80;;;6.80;76.10;;;;;;5136863;27;20050;-74
2021/12/17 03:33:51;;;;;;;14.15;8.43;;;6.80;76.10;;;;;;5134802;27;20483;-72
2021/12/17 03:36:18;;;;;;;13.93;8.75;;;6.80;76.10;;;;;;5136717;27;20057;-73
2021/12/17 03:38:47;;;;;;;18.00;9.73;;;6.80;76.10;;;;;;5135522;27;20019;-73
2021/12/17 03:41:27;;;;;;;16.08;9.52;;;6.80;76.10;;;;;;5135532;27;20023;-73
2021/12/17 03:43:54;;;;;;;18.00;9.43;;;6.90;76.20;;;;;;5117436;27;20130;-72
2021/12/17 03:46:21;;;;;;;17.77;9.23;;;6.90;76.20;;;;;;5135062;27;20023;-73
2021/12/17 03:48:47;;;;;;;17.80;9.75;;;6.90;76.20;;;;;;5134795;27;20023;-73
2021/12/17 03:51:16;;;;;;;16.65;10.18;;;6.80;76.30;;;;;;5136248;27;20520;-74
2021/12/17 03:54:00;;;;;;;17.58;8.80;;;6.90;76.30;;;;;;5117326;27;20031;-76
2021/12/17 03:56:27;;;;;;;15.95;9.10;;;6.90;76.20;;;;;;5132710;27;20027;-73
2021/12/17 03:58:55;;;;;;;19.48;10.00;;;6.90;76.20;;;;;;5127058;27;20092;-73
2021/12/17 04:01:21;;;;;;;18.92;8.82;;;6.90;76.20;;;;;;5135218;27;20019;-74
2021/12/17 04:03:47;;;;;;;15.48;8.80;;;6.90;76.20;;;;;;5127470;27;20067;-73
2021/12/17 04:06:13;;;;;;;16.15;8.82;;;6.90;76.30;;;;;;5115518;28;20510;-74
2021/12/17 04:08:39;;;;;;;17.45;9.48;;;6.90;76.40;;;;;;5103024;28;20609;-74
2021/12/17 04:11:07;;;;;;;16.67;9.80;;;6.90;76.40;;;;;;5121860;27;20114;-74
2021/12/17 04:13:36;;;;;;;15.82;9.32;;;6.90;76.30;;;;;;5117573;27;20359;-74
2021/12/17 04:16:09;;;;;;;14.18;9.02;;;6.90;76.40;;;;;;5132091;27;20489;-75
2021/12/17 04:18:40;;;;;;;20.98;10.65;;;6.90;76.50;;;;;;5134770;27;20372;-73
2021/12/17 04:21:13;;;;;;;21.73;10.23;;;6.90;76.40;;;;;;5135843;27;20019;-74
2021/12/17 04:23:43;;;;;;;21.23;10.32;;;6.90;76.40;;;;;;5134352;27;20043;-74
2021/12/17 04:26:10;;;;;;;17.60;10.43;;;6.90;76.40;;;;;;5135895;27;20015;-74
2021/12/17 04:28:41;;;;;;;20.50;10.57;;;6.90;76.40;;;;;;5134039;27;20131;-74
2021/12/17 04:31:07;;;;;;;18.98;10.20;;;7.00;76.60;;;;;;5115166;28;20160;-74
2021/12/17 04:33:33;;;;;;;17.60;9.85;;;6.90;76.60;;;;;;5114272;27;20106;-74
2021/12/17 04:35:59;;;;;;;20.40;9.23;;;6.90;76.60;;;;;;5118278;27;20407;-74
2021/12/17 04:38:27;;;;;;;22.65;11.23;;;7.00;76.70;;;;;;5124785;27;20027;-74
2021/12/17 04:40:53;;;;;;;23.05;11.98;;;7.00;76.60;;;;;;5116321;27;20060;-75
2021/12/17 04:43:36;;;;;;;28.60;15.88;;;7.00;76.70;;;;;;5115748;27;20680;-75
2021/12/17 04:46:16;;;;;;;32.10;16.40;;;7.00;76.50;;;;;;5130312;27;20493;-74
2021/12/17 04:59:38;;;;;;;51.38;19.75;;;7.00;76.40;;;;;;5130333;27;20041;-74
2021/12/17 05:02:03;;;;;;;174.50;61.33;;;7.10;76.40;;;;;;5131013;27;20027;-74
2021/12/17 05:04:29;;;;;;;111.22;44.83;;;7.00;76.40;;;;;;5128272;27;20054;-74
2021/12/17 05:06:55;;;;;;;44.72;20.88;;;7.00;76.40;;;;;;5132872;27;20111;-74
2021/12/17 05:09:30;;;;;;;37.00;16.63;;;7.00;76.40;;;;;;5126857;27;20023;-73
2021/12/17 05:19:58;;;;;;;112.70;41.47;;;7.00;76.50;;;;;;5124650;27;19952;-73
2021/12/17 05:22:26;;;;;;;44.35;20.63;;;7.00;76.10;;;;;;5130961;27;20102;-74
2021/12/17 05:24:51;;;;;;;36.20;17.02;;;7.00;76.90;;;;;;5129398;27;20031;-73
2021/12/17 05:27:18;;;;;;;25.40;13.65;;;7.00;76.30;;;;;;5121150;27;20118;-74
2021/12/17 05:29:45;;;;;;;19.50;11.40;;;7.00;76.00;;;;;;5130457;27;20088;-74
2021/12/17 05:32:11;;;;;;;17.30;10.57;;;6.90;76.00;;;;;;5109461;27;20023;-73
2021/12/17 05:34:36;;;;;;;15.90;10.02;;;6.90;76.10;;;;;;5118894;27;20107;-74
2021/12/17 05:37:02;;;;;;;30.85;15.52;;;6.90;76.40;;;;;;5131175;27;20023;-74
2021/12/17 05:39:28;;;;;;;28.67;14.63;;;6.90;76.70;;;;;;5122325;27;20038;-74
2021/12/17 05:41:54;;;;;;;167.15;70.03;;;6.90;76.80;;;;;;5131022;27;20020;-74
2021/12/17 05:44:20;;;;;;;367.75;162.90;;;6.90;76.80;;;;;;5132003;27;20035;-75
2021/12/17 05:46:49;;;;;;;186.27;84.40;;;6.90;76.80;;;;;;5126877;27;20023;-74
2021/12/17 05:49:17;;;;;;;105.07;50.13;;;6.90;76.80;;;;;;5127682;27;20027;-73
2021/12/17 05:51:43;;;;;;;47.63;25.85;;;6.90;76.70;;;;;;5129637;27;20012;-73
2021/12/17 05:54:09;;;;;;;32.20;18.08;;;6.90;76.70;;;;;;5132170;27;20088;-74
2021/12/17 05:56:34;;;;;;;28.38;14.85;;;6.90;76.60;;;;;;5121620;27;20023;-74
2021/12/17 05:59:00;;;;;;;22.90;12.00;;;6.90;76.60;;;;;;5116693;27;20406;-74
2021/12/17 06:01:25;;;;;;;21.33;11.35;;;6.90;76.60;;;;;;5131756;27;20022;-73
2021/12/17 06:03:51;;;;;;;21.77;11.98;;;6.90;76.70;;;;;;5110185;27;20055;-74
2021/12/17 06:06:30;;;;;;;22.40;11.95;;;6.90;76.70;;;;;;5133477;27;20034;-74
2021/12/17 06:08:56;;;;;;;21.30;11.00;;;6.90;76.90;;;;;;5130240;27;20053;-74
2021/12/17 06:11:21;;;;;;;21.15;11.13;;;7.00;76.90;;;;;;5131752;27;20043;-74
2021/12/17 06:13:47;;;;;;;19.58;10.88;;;6.90;76.80;;;;;;5120630;27;20027;-74
2021/12/17 06:16:13;;;;;;;20.17;10.30;;;7.00;76.90;;;;;;5127929;27;20023;-74
2021/12/17 06:18:38;;;;;;;12.38;7.93;;;7.00;76.80;;;;;;5130946;27;20509;-74
2021/12/17 06:21:04;;;;;;;14.52;8.80;;;7.00;76.70;;;;;;5128099;27;20020;-74
2021/12/17 06:23:29;;;;;;;14.18;8.90;;;7.00;76.70;;;;;;5124123;27;20035;-73
2021/12/17 06:25:55;;;;;;;16.10;9.93;;;7.00;76.70;;;;;;5131033;28;20487;-74
2021/12/17 06:28:21;;;;;;;18.30;8.38;;;7.00;76.70;;;;;;5131246;28;20047;-74
2021/12/17 06:30:47;;;;;;;12.50;8.20;;;7.10;76.70;;;;;;5115545;28;20050;-73
2021/12/17 06:33:12;;;;;;;12.45;7.82;;;7.10;76.60;;;;;;5133188;28;20380;-73
2021/12/17 06:35:38;;;;;;;10.38;7.63;;;7.10;76.50;;;;;;5119291;28;20031;-74
2021/12/17 06:38:04;;;;;;;12.57;7.90;;;7.10;76.40;;;;;;5132685;28;20019;-74
2021/12/17 06:40:31;;;;;;;12.43;7.97;;;7.20;76.40;;;;;;5129056;28;20027;-74
2021/12/17 06:42:57;;;;;;;11.68;7.80;;;7.20;76.30;;;;;;5123558;28;20042;-74
2021/12/17 06:45:39;;;;;;;11.75;8.25;;;7.20;76.30;;;;;;5129026;27;20414;-74
2021/12/17 06:48:05;;;;;;;11.80;7.85;;;7.20;76.10;;;;;;5137203;27;20075;-74
2021/12/17 06:59:05;;;;;;;10.95;6.82;;;7.30;75.80;;;;;;5134106;27;20447;-74
2021/12/17 07:17:21;;;;;;;10.30;6.50;;;7.30;75.60;;;;;;5135784;27;20163;-74
2021/12/17 07:33:19;;;;;;;6.97;3.95;;;7.40;75.30;;;;;;5136183;27;19915;-74
2021/12/17 07:40:58;;;;;;;6.18;4.60;;;7.40;74.80;;;;;;5129924;27;20025;-74
2021/12/17 07:43:34;;;;;;;6.95;4.55;;;7.40;74.80;;;;;;5134074;27;20088;-73
2021/12/17 07:46:00;;;;;;;5.97;4.40;;;7.40;74.90;;;;;;5132345;27;20363;-74
2021/12/17 07:48:26;;;;;;;7.38;4.60;;;7.40;74.90;;;;;;5134845;27;20031;-74
2021/12/17 07:50:52;;;;;;;6.35;4.25;;;7.40;74.90;;;;;;5134685;27;20080;-74
2021/12/17 07:53:19;;;;;;;7.70;4.72;;;7.40;74.90;;;;;;5134785;27;20528;-74
2021/12/17 07:55:44;;;;;;;6.00;4.70;;;7.40;74.80;;;;;;5134888;27;20031;-75
2021/12/17 07:58:11;;;;;;;5.97;4.55;;;7.40;74.90;;;;;;5134786;27;20079;-74
2021/12/17 08:00:37;;;;;;;7.55;4.97;;;7.50;75.00;;;;;;5131926;27;20027;-74
2021/12/17 08:03:03;;;;;;;6.05;4.38;;;7.50;75.00;;;;;;5111816;27;20154;-74
2021/12/17 08:05:28;;;;;;;5.82;4.38;;;7.50;74.80;;;;;;5117068;27;20548;-74
2021/12/17 08:07:54;;;;;;;7.75;4.95;;;7.50;74.50;;;;;;5132589;27;20034;-74
2021/12/17 08:10:20;;;;;;;6.68;4.60;;;7.60;74.60;;;;;;5133873;27;20063;-74
2021/12/17 08:12:45;;;;;;;6.70;4.97;;;7.60;75.10;;;;;;5126549;27;20390;-73
2021/12/17 08:15:13;;;;;;;6.78;4.75;;;7.60;74.30;;;;;;5102336;27;20024;-74
2021/12/17 08:23:46;;;;;;;7.30;5.63;;;7.70;74.10;;;;;;5091004;27;20032;-73
2021/12/17 08:28:25;;;;;;;;;;;7.70;74.20;;;;;;5136335;27;20054;-74
2021/12/17 08:30:51;;;;;;;7.68;5.30;;;7.80;73.90;;;;;;5123175;27;19907;-74
2021/12/17 08:33:20;;;;;;;9.80;5.95;;;7.80;74.10;;;;;;5135504;27;20023;-75
2021/12/17 08:35:46;;;;;;;11.38;6.78;;;7.80;74.10;;;;;;5133777;27;20027;-74
2021/12/17 08:38:12;;;;;;;7.97;6.05;;;7.80;74.20;;;;;;5134863;27;20475;-74
2021/12/17 08:40:38;;;;;;;8.45;5.88;;;7.90;74.20;;;;;;5133369;27;20027;-74
2021/12/17 08:43:04;;;;;;;8.30;6.32;;;7.90;74.20;;;;;;5114982;27;20031;-74
2021/12/17 08:45:31;;;;;;;9.00;6.18;;;7.90;74.10;;;;;;5121585;27;20038;-74
2021/12/17 08:47:57;;;;;;;8.07;5.60;;;8.00;74.20;;;;;;5127682;27;20033;-74
2021/12/17 08:50:24;;;;;;;6.65;5.35;;;8.10;74.20;;;;;;5131413;27;20130;-73
2021/12/17 08:52:50;;;;;;;8.52;5.85;;;8.10;74.20;;;;;;5124380;27;20019;-74
2021/12/17 08:55:16;;;;;;;6.70;4.70;;;8.20;74.10;;;;;;5132373;27;20023;-74
2021/12/17 08:57:42;;;;;;;7.35;5.43;;;8.30;74.20;;;;;;5132594;27;20374;-75
2021/12/17 09:00:11;;;;;;;7.78;5.50;;;8.40;74.10;;;;;;5133279;27;20035;-74
2021/12/17 09:02:38;;;;;;;8.52;5.10;;;8.60;73.90;;;;;;5133847;27;20016;-75
2021/12/17 09:05:05;;;;;;;6.57;4.78;;;8.70;73.70;;;;;;5126521;27;20169;-74
2021/12/17 09:07:30;;;;;;;6.70;4.32;;;8.80;73.30;;;;;;5134716;27;20467;-74
2021/12/17 09:09:56;;;;;;;5.80;4.65;;;8.90;72.90;;;;;;5131811;27;20039;-75
2021/12/17 09:12:22;;;;;;;5.35;4.28;;;9.00;72.60;;;;;;5133210;27;20383;-75
2021/12/17 09:14:48;;;;;;;5.20;4.10;;;9.00;72.50;;;;;;5129148;27;20042;-74
2021/12/17 09:17:14;;;;;;;7.68;4.22;;;9.10;72.20;;;;;;5124004;27;20243;-74
2021/12/17 09:19:39;;;;;;;4.65;4.07;;;9.10;72.00;;;;;;5134097;27;20026;-74
2021/12/17 09:22:05;;;;;;;6.55;4.57;;;9.20;71.90;;;;;;5133033;27;20472;-74
2021/12/17 09:24:31;;;;;;;4.35;3.80;;;9.30;71.70;;;;;;5132130;27;20104;-74
2021/12/17 09:26:57;;;;;;;5.40;4.38;;;9.30;71.70;;;;;;5130786;27;20045;-74
2021/12/17 09:29:23;;;;;;;4.95;3.90;;;9.40;71.50;;;;;;5116202;27;20051;-73
2021/12/17 09:31:49;;;;;;;4.10;3.67;;;9.40;71.30;;;;;;5121541;27;20115;-75
2021/12/17 09:34:15;;;;;;;4.80;3.88;;;9.50;72.10;;;;;;5128208;27;20537;-74
2021/12/17 09:36:41;;;;;;;4.88;3.97;;;9.50;71.20;;;;;;5116068;27;20023;-74
2021/12/17 09:39:06;;;;;;;5.38;4.10;;;9.60;71.10;;;;;;5133807;27;20067;-74
2021/12/17 09:41:32;;;;;;;4.60;3.75;;;9.60;70.60;;;;;;5131360;27;20015;-74
2021/12/17 09:43:58;;;;;;;5.80;4.15;;;9.70;70.60;;;;;;5131082;27;20513;-74
2021/12/17 09:46:23;;;;;;;4.05;3.58;;;9.70;70.50;;;;;;5122689;27;20027;-74
2021/12/17 09:48:49;;;;;;;4.43;3.65;;;9.80;70.40;;;;;;5133718;27;20027;-74
2021/12/17 09:51:18;;;;;;;4.38;3.78;;;9.80;70.30;;;;;;5122414;27;20111;-74
2021/12/17 09:53:45;;;;;;;4.60;3.70;;;9.90;70.10;;;;;;5124727;27;20031;-74
2021/12/17 09:56:11;;;;;;;5.10;3.90;;;9.90;70.30;;;;;;5128866;27;20494;-74
2021/12/17 09:58:37;;;;;;;5.53;3.92;;;10.00;70.00;;;;;;5115718;27;20055;-73
2021/12/17 10:01:03;;;;;;;4.47;3.75;;;10.00;70.70;;;;;;5131305;27;20027;-73
2021/12/17 10:03:29;;;;;;;4.70;3.75;;;10.10;69.90;;;;;;5131905;27;20511;-74
2021/12/17 10:05:55;;;;;;;5.55;3.78;;;10.20;69.90;;;;;;5111992;27;20055;-74
2021/12/17 10:08:24;;;;;;;4.55;3.95;;;10.20;69.80;;;;;;5115205;27;20066;-74
2021/12/17 10:11:01;;;;;;;4.70;3.80;;;10.30;69.50;;;;;;5126656;27;20389;-72
2021/12/17 10:13:28;;;;;;;7.32;3.72;;;10.40;69.00;;;;;;5132997;27;20022;-73
2021/12/17 10:15:57;;;;;;;6.13;3.97;;;10.40;69.30;;;;;;5129464;27;20045;-73
2021/12/17 10:18:33;;;;;;;5.03;3.90;;;10.50;68.90;;;;;;5132775;27;20023;-73
2021/12/17 10:21:03;;;;;;;5.80;3.72;;;10.50;68.00;;;;;;5131527;27;20106;-73
2021/12/17 10:23:30;;;;;;;4.65;3.85;;;10.60;68.70;;;;;;5127949;27;20031;-73
2021/12/17 10:25:56;;;;;;;4.97;4.07;;;10.60;68.40;;;;;;5130140;27;20027;-72
2021/12/17 10:28:22;;;;;;;5.65;3.90;;;10.60;68.30;;;;;;5107143;27;20043;-73
2021/12/17 10:30:50;;;;;;;5.93;4.60;;;10.70;68.30;;;;;;5132917;27;20049;-72
2021/12/17 10:33:19;;;;;;;6.28;4.28;;;10.70;68.20;;;;;;5127098;27;20514;-72
2021/12/17 10:35:50;;;;;;;5.07;4.05;;;10.80;68.10;;;;;;5123770;27;20024;-73
2021/12/17 10:38:18;;;;;;;5.55;4.03;;;10.80;68.30;;;;;;5127372;27;20038;-72
2021/12/17 10:41:09;;;;;;;5.57;4.30;;;10.90;68.30;;;;;;5127731;27;20026;-72
2021/12/17 10:43:39;;;;;;;5.65;4.28;;;10.90;67.70;;;;;;5112495;28;20391;-73
2021/12/17 10:46:21;;;;;;;6.10;4.50;;;10.90;68.00;;;;;;5119675;27;20058;-72
2021/12/17 10:48:52;;;;;;;5.60;4.25;;;11.00;67.70;;;;;;5132332;27;20027;-72
2021/12/17 10:54:02;;;;;;;5.07;3.88;;;11.00;67.40;;;;;;5133121;27;20027;-73
2021/12/17 10:56:32;;;;;;;5.45;3.80;;;11.00;67.80;;;;;;5131382;28;20528;-72
2021/12/17 10:59:00;;;;;;;9.23;3.97;;;11.00;67.50;;;;;;5118999;28;20055;-73
2021/12/17 11:01:51;;;;;;;4.38;3.33;;;11.10;67.50;;;;;;5129374;28;20039;-72
2021/12/17 11:04:25;;;;;;;5.03;3.83;;;11.10;66.40;;;;;;5129234;27;20031;-72
2021/12/17 11:06:57;;;;;;;4.18;3.33;;;11.10;67.10;;;;;;5132859;28;20058;-72
2021/12/17 11:09:34;;;;;;;4.65;3.50;;;11.10;67.30;;;;;;5132702;28;20027;-72
2021/12/17 11:12:02;;;;;;;25.27;16.52;;;11.20;66.90;;;;;;5132182;28;20044;-73
2021/12/17 11:14:28;;;;;;;9.15;7.28;;;11.20;67.50;;;;;;5132888;27;20037;-72
2021/12/17 11:16:54;;;;;;;6.60;4.35;;;11.30;67.40;;;;;;5124261;28;20046;-72
2021/12/17 11:19:20;;;;;;;7.15;6.15;;;11.30;66.90;;;;;;5132742;27;20032;-72
2021/12/17 11:21:46;;;;;;;6.03;4.40;;;11.30;67.00;;;;;;5132587;27;20054;-72
2021/12/17 11:24:13;;;;;;;4.80;3.88;;;11.40;67.20;;;;;;5119983;28;20070;-72
2021/12/17 11:26:40;;;;;;;6.47;4.95;;;11.40;67.00;;;;;;5111230;28;20109;-72
2021/12/17 11:29:07;;;;;;;4.60;4.03;;;11.40;67.00;;;;;;5118440;28;20124;-72
2021/12/17 11:31:33;;;;;;;6.13;4.90;;;11.40;67.00;;;;;;5131755;27;20076;-72
2021/12/17 11:34:01;;;;;;;9.18;6.78;;;11.50;67.00;;;;;;5125606;27;20031;-72
2021/12/17 11:36:28;;;;;;;6.25;3.70;;;11.50;66.90;;;;;;5125447;27;20023;-72
2021/12/17 11:39:12;;;;;;;18.33;16.25;;;11.60;66.20;;;;;;5112680;27;20087;-72
2021/12/17 11:42:02;;;;;;;5.30;4.50;;;11.60;66.40;;;;;;5134925;27;20091;-72
2021/12/17 11:44:39;;;;;;;3.85;3.45;;;11.70;66.00;;;;;;5133739;27;20067;-72
2021/12/17 11:47:08;;;;;;;3.08;2.78;;;11.70;66.50;;;;;;5133651;27;20024;-72
2021/12/17 11:49:49;;;;;;;4.47;3.10;;;11.70;66.30;;;;;;5135868;27;20479;-72
2021/12/17 11:52:16;;;;;;;3.15;2.85;;;11.70;65.90;;;;;;5135811;27;20023;-72
2021/12/17 11:54:41;;;;;;;3.00;2.70;;;11.70;66.10;;;;;;5135781;27;20019;-72
2021/12/17 11:57:13;;;;;;;3.15;2.85;;;11.80;66.10;;;;;;5129387;27;20490;-72
2021/12/17 11:59:44;;;;;;;3.13;2.83;;;11.80;65.80;;;;;;5121582;27;20128;-72
2021/12/17 12:02:22;;;;;;;17.30;9.85;;;11.80;65.90;;;;;;5134486;27;20035;-72
2021/12/17 12:04:57;;;;;;;8.13;5.97;;;11.80;65.70;;;;;;5126171;27;20423;-72
2021/12/17 12:07:25;;;;;;;6.25;4.50;;;11.90;65.80;;;;;;5133812;27;20031;-71
2021/12/17 12:09:59;;;;;;;5.15;3.78;;;11.90;66.00;;;;;;5133293;27;20066;-72
2021/12/17 12:12:26;;;;;;;5.68;4.55;;;11.90;66.00;;;;;;5133877;27;20020;-73
2021/12/17 12:14:52;;;;;;;4.38;3.78;;;12.00;66.00;;;;;;5135157;27;20110;-73
2021/12/17 12:18:09;;;;;;;7.93;4.05;;;12.00;66.00;;;;;;5124463;27;20031;-73
2021/12/17 12:20:43;;;;;;;3.70;3.28;;;12.10;64.50;;;;;;5133363;27;20019;-73
2021/12/17 12:23:19;;;;;;;5.05;3.70;;;12.10;65.00;;;;;;5121056;27;20542;-72
2021/12/17 12:26:11;;;;;;;4.78;3.95;;;12.10;65.20;;;;;;5132151;27;20023;-73
2021/12/17 12:28:53;;;;;;;6.00;4.40;;;12.10;65.70;;;;;;5132635;27;20092;-72
2021/12/17 12:31:25;;;;;;;9.82;4.35;;;12.20;65.10;;;;;;5121877;27;20172;-73
2021/12/17 12:34:03;;;;;;;3.90;3.38;;;12.20;64.80;;;;;;5135491;27;20015;-72
2021/12/17 12:36:53;;;;;;;3.50;3.20;;;12.20;65.00;;;;;;5130195;27;20023;-72
2021/12/17 12:39:27;;;;;;;4.38;3.72;;;12.20;65.10;;;;;;5131546;27;20015;-72
2021/12/17 12:42:07;;;;;;;3.55;2.53;;;12.20;65.10;;;;;;5134203;27;20048;-72
2021/12/17 12:44:42;;;;;;;5.32;3.55;;;12.20;65.20;;;;;;5120579;27;20434;-72
2021/12/17 12:47:11;;;;;;;4.30;3.50;;;12.20;64.80;;;;;;5124184;27;20421;-72
2021/12/17 12:49:49;;;;;;;4.57;3.65;;;12.20;65.10;;;;;;5134361;27;20494;-72
2021/12/17 12:52:31;;;;;;;4.57;3.83;;;12.20;65.00;;;;;;5128359;27;20030;-72
2021/12/17 12:55:02;;;;;;;6.03;3.92;;;12.20;63.50;;;;;;5132983;27;20391;-72
2021/12/17 12:57:31;;;;;;;4.60;4.07;;;12.10;64.60;;;;;;5132471;27;20034;-72
2021/12/17 13:00:00;;;;;;;5.68;4.30;;;12.10;64.50;;;;;;5130847;27;20061;-73
2021/12/17 13:02:27;;;;;;;5.45;3.83;;;12.00;64.70;;;;;;5133054;27;20041;-72
2021/12/17 13:04:59;;;;;;;5.93;4.18;;;12.00;64.50;;;;;;5126758;27;20521;-72
2021/12/17 13:07:35;;;;;;;6.25;4.57;;;11.90;64.10;;;;;;5133216;27;20047;-72
2021/12/17 13:10:30;;;;;;;6.10;4.30;;;11.90;63.90;;;;;;5126116;27;20027;-72
2021/12/17 13:13:00;;;;;;;5.53;4.43;;;11.80;64.00;;;;;;5124190;27;20514;-72
2021/12/17 13:23:49;;;;;;;6.85;5.05;;;11.60;65.40;;;;;;5123247;27;20083;-72
2021/12/17 13:26:16;;;;;;;6.38;4.80;;;11.60;65.50;;;;;;5124273;27;20019;-72
2021/12/17 13:28:53;;;;;;;7.05;5.38;;;11.60;65.60;;;;;;5126149;27;20510;-72
2021/12/17 13:31:40;;;;;;;7.05;5.32;;;11.60;65.10;;;;;;5123870;27;20050;-71
2021/12/17 13:34:16;;;;;;;7.13;5.70;;;11.60;64.90;;;;;;5120168;27;20024;-71
2021/12/17 13:37:08;;;;;;;9.50;5.93;;;11.60;65.20;;;;;;5121244;27;20425;-72
2021/12/17 13:39:44;;;;;;;7.90;6.05;;;11.60;65.10;;;;;;5113992;27;20482;-73
2021/12/17 13:42:16;;;;;;;8.05;5.70;;;11.50;65.70;;;;;;5108615;27;20034;-73
2021/12/17 13:44:46;;;;;;;7.68;5.40;;;11.50;65.50;;;;;;5100081;27;22939;-73
2021/12/17 13:47:30;;;;;;;8.48;5.75;;;11.40;65.20;;;;;;5114173;27;20031;-73
2021/12/17 13:50:12;;;;;;;7.43;5.60;;;11.40;66.00;;;;;;5126242;27;20019;-73
2021/12/17 13:53:00;;;;;;;8.00;5.60;;;11.30;65.00;;;;;;5128559;27;20280;-73
2021/12/17 13:55:32;;;;;;;5.93;4.53;;;11.30;65.10;;;;;;5104020;27;20027;-72
2021/12/17 13:58:01;;;;;;;8.35;5.15;;;11.20;65.50;;;;;;5107433;27;20425;-73
2021/12/17 14:00:36;;;;;;;8.23;5.22;;;11.10;65.60;;;;;;5105863;27;20467;-72
2021/12/17 14:03:03;;;;;;;6.15;5.32;;;11.10;65.60;;;;;;5121968;27;20065;-73
2021/12/17 14:05:40;;;;;;;10.00;5.80;;;11.00;65.80;;;;;;5122371;27;20034;-73
2021/12/17 14:08:09;;;;;;;6.65;5.28;;;10.90;65.80;;;;;;5133808;27;20056;-73
2021/12/17 14:10:36;;;;;;;6.68;5.45;;;10.90;65.70;;;;;;5129606;27;20487;-73
2021/12/17 14:13:04;;;;;;;5.25;4.72;;;10.80;65.70;;;;;;5112838;27;20114;-73
2021/12/17 14:15:32;;;;;;;6.78;5.63;;;10.80;65.90;;;;;;5126808;27;20019;-73
2021/12/17 14:18:09;;;;;;;8.82;5.80;;;10.70;65.80;;;;;;5131814;27;20106;-73
2021/12/17 14:20:44;;;;;;;6.80;5.53;;;10.60;66.50;;;;;;5122652;27;20023;-73
2021/12/17 14:23:30;;;;;;;5.95;4.85;;;10.50;65.90;;;;;;5126156;27;20110;-73
2021/12/17 14:26:00;;;;;;;6.22;4.60;;;10.50;66.00;;;;;;5112332;27;20027;-73
2021/12/17 14:28:30;;;;;;;6.60;4.63;;;10.40;66.50;;;;;;5128920;28;20043;-73
2021/12/17 14:31:04;;;;;;;6.43;5.00;;;10.40;66.60;;;;;;5121928;28;20110;-73
2021/12/17 14:33:41;;;;;;;6.97;5.40;;;10.40;66.80;;;;;;5125095;28;20050;-73
2021/12/17 14:36:19;;;;;;;10.27;6.40;;;10.30;66.80;;;;;;5112838;28;20027;-74
2021/12/17 14:39:09;;;;;;;11.02;6.18;;;10.30;66.90;;;;;;5131947;28;20027;-76
2021/12/17 14:41:47;;;;;;;9.00;6.75;;;10.20;67.10;;;;;;5115194;28;20027;-76
2021/12/17 15:00:30;;;;;;;10.90;7.60;;;9.80;67.30;;;;;;5132550;28;20122;-76
2021/12/17 15:03:07;;;;;;;8.52;6.65;;;9.80;67.50;;;;;;5125588;28;20061;-76
2021/12/17 15:05:33;;;;;;;8.05;6.90;;;9.70;67.60;;;;;;5114657;28;20064;-76
2021/12/17 15:08:01;;;;;;;11.00;8.40;;;9.60;67.80;;;;;;5114805;27;20035;-76
2021/12/17 15:10:28;;;;;;;12.85;8.82;;;9.60;67.90;;;;;;5134738;27;20119;-76
2021/12/17 15:12:56;;;;;;;11.35;7.95;;;9.40;67.80;;;;;;5136348;27;20523;-76
2021/12/17 15:15:25;;;;;;;11.68;8.45;;;9.40;67.90;;;;;;5133565;27;20020;-76
2021/12/17 15:17:53;;;;;;;10.65;7.95;;;9.30;68.00;;;;;;5136054;27;20031;-76
2021/12/17 15:20:25;;;;;;;12.18;8.57;;;9.20;68.00;;;;;;5135243;27;20405;-76
2021/12/17 15:22:52;;;;;;;11.85;8.02;;;9.10;68.20;;;;;;5117478;27;20023;-77
2021/12/17 15:25:19;;;;;;;12.02;8.70;;;9.00;68.30;;;;;;5125022;27;20031;-76
2021/12/17 15:27:45;;;;;;;10.85;7.75;;;8.90;68.30;;;;;;5127387;27;20450;-76
2021/12/17 15:30:14;;;;;;;11.95;8.00;;;8.80;68.30;;;;;;5133130;27;20039;-77
2021/12/17 15:32:41;;;;;;;11.52;7.38;;;8.70;68.40;;;;;;5116672;27;20132;-76
2021/12/17 15:35:08;;;;;;;12.55;7.75;;;8.60;68.60;;;;;;5131173;27;20110;-76
2021/12/17 15:37:34;;;;;;;12.02;8.45;;;8.50;68.80;;;;;;5119765;27;20374;-76
2021/12/17 15:40:00;;;;;;;12.48;8.13;;;8.40;69.00;;;;;;5135268;27;20023;-76
2021/12/17 15:42:26;;;;;;;14.18;9.50;;;8.30;69.20;;;;;;5117460;27;20034;-73
2021/12/17 15:44:52;;;;;;;14.70;8.93;;;8.30;69.50;;;;;;5134368;27;20035;-75
2021/12/17 15:47:17;;;;;;;12.20;7.82;;;8.20;69.60;;;;;;5117585;27;20034;-72
2021/12/17 15:49:43;;;;;;;13.07;8.52;;;8.10;69.70;;;;;;5134712;27;20027;-73
2021/12/17 15:52:09;;;;;;;14.23;8.90;;;8.10;69.90;;;;;;5116840;27;20122;-73
2021/12/17 15:54:36;;;;;;;14.75;8.95;;;8.00;70.10;;;;;;5134273;27;20356;-72
2021/12/17 15:57:04;;;;;;;14.50;9.20;;;8.00;70.30;;;;;;5133776;27;20016;-73
2021/12/17 15:59:30;;;;;;;16.80;9.68;;;7.90;70.40;;;;;;5131927;27;20023;-72
2021/12/17 16:01:57;;;;;;;13.65;8.63;;;7.90;71.30;;;;;;5135929;27;20080;-73
2021/12/17 16:04:22;;;;;;;13.35;8.63;;;7.90;70.70;;;;;;5135257;27;20117;-73
2021/12/17 16:06:48;;;;;;;17.30;10.50;;;7.90;70.80;;;;;;5128593;27;20472;-72
2021/12/17 16:10:01;;;;;;;18.17;10.77;;;7.90;71.00;;;;;;5134053;27;20380;-74
2021/12/17 16:23:16;;;;;;;12.57;7.68;;;7.80;70.60;;;;;;5140293;27;20046;-72